createdAt,value
2023-01-19T00:01:29.316Z,14.57
2023-01-19T00:03:57.316Z,17.30
2023-01-19T00:06:25.264Z,15.40
2023-01-19T00:08:53.239Z,15.35
2023-01-19T00:11:21.410Z,15.55
2023-01-19T00:13:51.125Z,16.58
2023-01-19T00:16:22.996Z,14.52
2023-01-19T00:18:54.016Z,15.93
2023-01-19T00:21:22.750Z,15.65
2023-01-19T00:23:52.652Z,15.50
2023-01-19T00:26:22.349Z,15.68
2023-01-19T00:28:51.120Z,14.73
2023-01-19T00:31:21.848Z,14.35
2023-01-19T00:33:51.630Z,14.10
2023-01-19T00:36:21.735Z,14.90
2023-01-19T00:38:49.621Z,15.18
2023-01-19T00:41:17.633Z,13.55
2023-01-19T00:43:44.848Z,14.52
2023-01-19T00:46:12.857Z,14.45
2023-01-19T00:48:40.819Z,15.63
2023-01-19T00:51:08.938Z,13.75
2023-01-19T00:53:38.260Z,15.52
2023-01-19T00:56:06.908Z,14.73
2023-01-19T00:58:34.823Z,12.88
2023-01-19T01:01:04.872Z,13.05
2023-01-19T01:03:33.646Z,13.63
2023-01-19T01:06:01.669Z,12.93
2023-01-19T01:08:29.809Z,14.23
2023-01-19T01:10:59.202Z,12.23
2023-01-19T01:13:28.326Z,10.57
2023-01-19T01:15:58.238Z,11.95
2023-01-19T01:18:26.604Z,11.00
2023-01-19T01:20:56.315Z,11.30
2023-01-19T01:23:24.456Z,11.63
2023-01-19T01:25:52.380Z,10.13
2023-01-19T01:28:21.760Z,10.95
2023-01-19T01:30:49.745Z,12.00
2023-01-19T01:33:40.404Z,10.48
2023-01-19T01:36:06.291Z,11.18
2023-01-19T01:38:34.428Z,11.70
2023-01-19T01:41:02.407Z,11.20
2023-01-19T01:43:45.717Z,11.88
2023-01-19T01:46:16.293Z,12.77
2023-01-19T01:48:49.966Z,11.07
2023-01-19T01:51:26.425Z,10.02
2023-01-19T01:54:08.020Z,11.85
2023-01-19T01:56:38.928Z,10.75
2023-01-19T01:59:13.583Z,8.95
2023-01-19T02:01:58.839Z,8.65
2023-01-19T02:04:28.227Z,9.50
2023-01-19T02:07:13.543Z,8.80
2023-01-19T02:09:59.077Z,8.32
2023-01-19T02:12:44.690Z,9.18
2023-01-19T02:15:20.266Z,7.47
2023-01-19T02:17:48.976Z,8.13
2023-01-19T02:20:17.817Z,8.43
2023-01-19T02:22:51.007Z,7.60
2023-01-19T02:25:21.200Z,6.65
2023-01-19T02:27:50.258Z,7.53
2023-01-19T02:30:18.981Z,6.85
2023-01-19T02:32:47.106Z,7.15
2023-01-19T02:35:15.271Z,8.23
2023-01-19T02:37:45.546Z,7.47
2023-01-19T02:40:16.325Z,7.50
2023-01-19T02:42:49.758Z,7.78
2023-01-19T02:45:21.730Z,7.70
2023-01-19T02:47:52.607Z,7.00
2023-01-19T02:50:41.833Z,7.40
2023-01-19T02:54:03.412Z,6.50
2023-01-19T02:57:06.791Z,6.43
2023-01-19T02:59:49.218Z,6.38
2023-01-19T03:02:29.080Z,5.93
2023-01-19T03:05:17.380Z,6.70
2023-01-19T03:07:54.708Z,6.60
2023-01-19T03:10:33.151Z,5.90
2023-01-19T03:13:08.410Z,7.00
2023-01-19T03:15:44.876Z,6.68
2023-01-19T03:18:15.965Z,6.63
2023-01-19T03:20:45.528Z,7.15
2023-01-19T03:23:16.709Z,9.05
2023-01-19T03:25:47.758Z,9.65
2023-01-19T03:28:18.540Z,9.65
2023-01-19T03:30:54.750Z,10.85
2023-01-19T03:33:28.016Z,12.05
2023-01-19T03:36:03.795Z,11.60
2023-01-19T03:38:35.632Z,10.27
2023-01-19T03:41:05.935Z,11.13
2023-01-19T03:43:36.454Z,9.38
2023-01-19T03:46:07.573Z,10.00
2023-01-19T03:48:35.861Z,9.75
2023-01-19T03:51:05.449Z,10.13
2023-01-19T03:53:33.524Z,8.50
2023-01-19T03:56:01.798Z,8.30
2023-01-19T03:58:29.751Z,8.98
2023-01-19T04:00:57.781Z,8.88
2023-01-19T04:03:27.116Z,8.13
2023-01-19T04:05:57.522Z,6.20
2023-01-19T04:08:25.444Z,6.68
2023-01-19T04:10:53.411Z,6.03
2023-01-19T04:13:21.381Z,6.47
2023-01-19T04:15:49.380Z,5.80
2023-01-19T04:18:17.416Z,5.63
2023-01-19T04:20:46.960Z,5.63
2023-01-19T04:23:14.835Z,5.60
2023-01-19T04:25:42.766Z,5.20
2023-01-19T04:28:10.641Z,5.55
2023-01-19T04:30:38.913Z,5.55
2023-01-19T04:33:07.105Z,4.85
2023-01-19T04:35:35.585Z,4.53
2023-01-19T04:38:04.971Z,4.35
2023-01-19T04:40:32.977Z,4.85
2023-01-19T04:43:01.356Z,4.60
2023-01-19T04:45:29.498Z,5.25
2023-01-19T04:47:57.479Z,4.20
2023-01-19T04:50:25.620Z,4.78
2023-01-19T04:52:53.615Z,4.97
2023-01-19T04:55:22.953Z,4.03
2023-01-19T04:57:50.989Z,4.13
2023-01-19T05:00:20.882Z,4.85
2023-01-19T05:02:49.102Z,5.70
2023-01-19T05:05:17.637Z,5.43
2023-01-19T05:07:45.731Z,8.88
2023-01-19T05:10:13.931Z,6.68
2023-01-19T05:12:43.334Z,5.10
2023-01-19T05:15:12.026Z,5.88
2023-01-19T05:17:39.912Z,5.18
2023-01-19T05:20:10.463Z,5.78
2023-01-19T05:22:38.490Z,5.95
2023-01-19T05:25:08.819Z,6.05
2023-01-19T05:27:37.156Z,5.93
2023-01-19T05:30:07.972Z,5.65
2023-01-19T05:32:35.966Z,6.68
2023-01-19T05:35:03.962Z,6.50
2023-01-19T05:37:32.716Z,7.35
2023-01-19T05:40:00.691Z,7.63
2023-01-19T05:42:28.944Z,6.40
2023-01-19T05:44:57.479Z,6.50
2023-01-19T05:47:27.019Z,7.30
2023-01-19T05:49:55.252Z,8.77
2023-01-19T05:52:25.008Z,7.68
2023-01-19T05:54:55.179Z,7.10
2023-01-19T05:57:23.369Z,6.65
2023-01-19T05:59:51.467Z,7.32
2023-01-19T06:02:19.424Z,10.50
2023-01-19T06:04:48.754Z,6.20
2023-01-19T06:07:16.718Z,6.40
2023-01-19T06:09:44.687Z,7.85
2023-01-19T06:12:12.589Z,7.35
2023-01-19T06:14:40.963Z,7.13
2023-01-19T06:17:08.900Z,5.30
2023-01-19T06:19:36.942Z,5.72
2023-01-19T06:22:06.390Z,5.70
2023-01-19T06:24:34.358Z,7.22
2023-01-19T06:27:02.265Z,6.60
2023-01-19T06:29:30.202Z,6.22
2023-01-19T06:31:58.253Z,6.00
2023-01-19T06:34:29.092Z,6.85
2023-01-19T06:36:57.335Z,6.70
2023-01-19T06:39:27.541Z,7.20
2023-01-19T06:41:55.527Z,5.82
2023-01-19T06:44:23.487Z,6.20
2023-01-19T06:46:51.399Z,6.65
2023-01-19T06:49:39.357Z,6.45
2023-01-19T06:52:07.922Z,6.63
2023-01-19T06:54:37.380Z,8.07
2023-01-19T06:57:06.149Z,6.60
2023-01-19T06:59:34.146Z,7.03
2023-01-19T07:02:26.461Z,7.38
2023-01-19T07:04:50.064Z,8.10
2023-01-19T07:07:18.025Z,8.23
2023-01-19T07:09:47.411Z,8.98
2023-01-19T07:12:16.047Z,8.50
2023-01-19T07:14:44.220Z,6.82
2023-01-19T07:17:13.438Z,6.95
2023-01-19T07:19:41.420Z,5.35
2023-01-19T07:22:09.331Z,4.63
2023-01-19T07:24:38.260Z,6.03
2023-01-19T07:27:07.706Z,5.90
2023-01-19T07:29:35.664Z,5.97
2023-01-19T07:32:03.613Z,5.38
2023-01-19T07:34:31.811Z,4.57
2023-01-19T07:36:59.762Z,4.43
2023-01-19T07:39:27.947Z,5.47
2023-01-19T07:41:55.825Z,5.30
2023-01-19T07:44:25.086Z,5.18
2023-01-19T07:46:52.995Z,5.18
2023-01-19T07:49:21.768Z,4.93
2023-01-19T07:51:49.731Z,4.85
2023-01-19T07:54:17.627Z,5.57
2023-01-19T07:56:45.584Z,5.43
2023-01-19T07:59:13.664Z,4.60
2023-01-19T08:01:43.182Z,4.78
2023-01-19T08:04:11.688Z,5.43
2023-01-19T08:06:41.617Z,5.05
2023-01-19T08:09:10.114Z,4.70
2023-01-19T08:11:38.088Z,4.80
2023-01-19T08:14:07.939Z,5.05
2023-01-19T08:16:36.186Z,5.55
2023-01-19T08:19:05.735Z,4.95
2023-01-19T08:21:35.674Z,4.40
2023-01-19T08:24:03.667Z,4.53
2023-01-19T08:26:33.689Z,5.93
2023-01-19T08:29:03.316Z,5.97
2023-01-19T08:31:31.656Z,4.93
2023-01-19T08:34:00.191Z,5.78
2023-01-19T08:36:29.532Z,6.68
2023-01-19T08:38:57.456Z,5.60
2023-01-19T08:41:25.352Z,5.20
2023-01-19T08:43:53.271Z,4.93
2023-01-19T08:46:22.016Z,4.80
2023-01-19T08:48:50.550Z,5.10
2023-01-19T08:51:19.256Z,6.72
2023-01-19T08:53:48.691Z,6.00
2023-01-19T08:56:18.011Z,6.25
2023-01-19T08:58:53.647Z,5.88
2023-01-19T09:01:31.517Z,4.22
2023-01-19T09:03:59.514Z,4.15
2023-01-19T09:06:28.495Z,4.97
2023-01-19T09:08:58.170Z,5.57
2023-01-19T09:11:26.101Z,5.40
2023-01-19T09:13:54.234Z,4.50
2023-01-19T09:16:22.382Z,3.83
2023-01-19T09:18:50.348Z,4.40
2023-01-19T09:21:18.729Z,4.30
2023-01-19T09:23:46.613Z,6.20
2023-01-19T09:26:16.980Z,4.43
2023-01-19T09:28:44.908Z,4.57
2023-01-19T09:31:13.423Z,3.92
2023-01-19T09:33:41.960Z,5.45
2023-01-19T09:36:34.747Z,4.85
2023-01-19T09:44:20.599Z,5.20
2023-01-19T09:46:48.559Z,5.68
2023-01-19T09:49:18.442Z,5.68
2023-01-19T09:51:49.143Z,6.05
2023-01-19T09:54:19.618Z,5.60
2023-01-19T09:56:52.433Z,5.35
2023-01-19T09:59:25.319Z,4.30
2023-01-19T10:02:07.049Z,4.75
2023-01-19T10:04:51.332Z,4.95
2023-01-19T10:13:39.889Z,5.05
2023-01-19T10:16:23.320Z,5.88
2023-01-19T10:19:12.990Z,6.65
2023-01-19T10:21:44.481Z,4.93
2023-01-19T10:24:19.516Z,5.93
2023-01-19T10:26:49.937Z,5.68
2023-01-19T10:29:26.109Z,5.38
2023-01-19T10:35:23.520Z,5.65
2023-01-19T10:37:52.987Z,5.45
2023-01-19T10:40:33.252Z,6.25
2023-01-19T10:43:01.671Z,8.52
2023-01-19T10:45:32.278Z,12.77
2023-01-19T10:48:07.489Z,7.97
2023-01-19T10:50:39.896Z,17.55
2023-01-19T10:53:19.216Z,9.00
2023-01-19T10:55:47.331Z,9.30
2023-01-19T10:58:29.781Z,7.35
2023-01-19T11:01:14.749Z,7.30
2023-01-19T11:03:44.529Z,7.05
2023-01-19T11:06:25.403Z,6.22
2023-01-19T11:08:54.775Z,6.47
2023-01-19T11:11:24.736Z,6.88
2023-01-19T11:14:10.140Z,6.53
2023-01-19T11:16:40.159Z,6.13
2023-01-19T11:19:20.292Z,5.47
2023-01-19T11:21:48.506Z,6.80
2023-01-19T11:24:16.674Z,5.32
2023-01-19T11:26:48.043Z,6.22
2023-01-19T11:29:19.967Z,5.97
2023-01-19T11:31:49.082Z,5.68
2023-01-19T11:34:32.903Z,5.72
2023-01-19T11:37:03.045Z,4.70
2023-01-19T11:39:33.157Z,6.47
2023-01-19T11:42:04.394Z,5.85
2023-01-19T11:44:36.532Z,4.90
2023-01-19T11:47:09.534Z,5.25
2023-01-19T11:49:45.345Z,5.17
2023-01-19T11:52:21.319Z,5.57
2023-01-19T11:54:57.766Z,5.30
2023-01-19T11:57:26.082Z,5.45
2023-01-19T11:59:56.376Z,5.45
2023-01-19T12:02:29.693Z,7.55
2023-01-19T12:05:05.759Z,5.20
2023-01-19T12:07:37.680Z,4.88
2023-01-19T12:10:20.970Z,5.88
2023-01-19T12:12:49.566Z,6.03
2023-01-19T12:15:31.798Z,5.57
2023-01-19T12:18:03.395Z,5.13
2023-01-19T12:20:38.727Z,6.00
2023-01-19T12:23:21.074Z,5.43
2023-01-19T12:26:00.773Z,6.90
2023-01-19T12:28:31.517Z,7.22
2023-01-19T12:31:02.139Z,6.35
2023-01-19T12:33:38.155Z,5.82
2023-01-19T12:36:14.419Z,7.25
2023-01-19T12:38:47.570Z,5.40
2023-01-19T12:41:24.832Z,7.20
2023-01-19T12:44:25.339Z,6.70
2023-01-19T12:46:57.443Z,8.45
2023-01-19T12:49:29.249Z,6.50
2023-01-19T12:52:17.406Z,5.40
2023-01-19T12:54:54.524Z,7.07
2023-01-19T12:57:26.764Z,7.20
2023-01-19T12:59:59.700Z,7.30
2023-01-19T13:02:47.037Z,6.77
2023-01-19T13:05:18.746Z,7.82
2023-01-19T13:08:17.087Z,7.13
2023-01-19T13:11:19.736Z,6.18
2023-01-19T13:14:27.621Z,6.07
2023-01-19T13:17:05.595Z,5.97
2023-01-19T13:19:48.236Z,5.53
2023-01-19T13:23:04.832Z,6.43
2023-01-19T13:25:36.729Z,5.65
2023-01-19T13:28:12.091Z,6.30
2023-01-19T13:30:50.107Z,5.40
2023-01-19T13:33:22.909Z,5.57
2023-01-19T13:35:58.684Z,6.68
2023-01-19T13:38:29.808Z,5.07
2023-01-19T13:41:03.226Z,6.60
2023-01-19T13:43:37.142Z,6.30
2023-01-19T13:48:34.228Z,5.93
2023-01-19T13:51:05.176Z,6.03
2023-01-19T13:53:34.244Z,5.80
2023-01-19T13:56:17.644Z,5.80
2023-01-19T13:58:58.153Z,6.90
2023-01-19T14:01:29.258Z,4.70
2023-01-19T14:03:58.064Z,6.05
2023-01-19T14:06:34.787Z,6.50
2023-01-19T14:09:23.998Z,7.07
2023-01-19T14:12:17.629Z,5.40
2023-01-19T14:14:48.386Z,6.20
2023-01-19T14:17:25.271Z,5.30
2023-01-19T14:19:54.870Z,5.30
2023-01-19T14:22:22.929Z,5.65
2023-01-19T14:24:50.891Z,5.60
2023-01-19T14:27:25.313Z,5.15
2023-01-19T14:29:55.020Z,5.72
2023-01-19T14:32:24.464Z,5.50
2023-01-19T14:35:16.376Z,5.70
2023-01-19T14:37:50.178Z,4.68
2023-01-19T14:40:21.912Z,4.78
2023-01-19T14:42:54.564Z,5.40
2023-01-19T14:45:26.627Z,4.22
2023-01-19T14:47:57.887Z,4.63
2023-01-19T14:50:27.830Z,4.57
2023-01-19T14:53:00.394Z,3.88
2023-01-19T14:55:34.863Z,4.97
2023-01-19T14:58:11.201Z,5.00
2023-01-19T15:00:39.362Z,4.38
2023-01-19T15:03:07.458Z,4.65
2023-01-19T15:05:35.831Z,4.68
2023-01-19T15:08:05.412Z,4.03
2023-01-19T15:10:33.728Z,4.35
2023-01-19T15:13:02.145Z,6.88
2023-01-19T15:15:33.282Z,15.18
2023-01-19T15:18:03.783Z,18.83
2023-01-19T15:20:32.140Z,8.73
2023-01-19T15:23:00.093Z,15.93
2023-01-19T15:25:28.058Z,8.60
2023-01-19T15:27:59.850Z,6.78
2023-01-19T15:30:31.055Z,5.00
2023-01-19T15:33:20.809Z,5.60
2023-01-19T15:35:49.105Z,6.30
2023-01-19T15:38:17.101Z,4.40
2023-01-19T15:40:45.008Z,4.43
2023-01-19T15:43:12.959Z,4.57
2023-01-19T15:45:43.519Z,4.72
2023-01-19T15:48:13.205Z,5.28
2023-01-19T15:50:44.098Z,4.47
2023-01-19T15:53:15.865Z,7.25
2023-01-19T15:55:43.832Z,4.57
2023-01-19T15:58:13.982Z,6.28
2023-01-19T16:00:42.556Z,5.40
2023-01-19T16:03:11.883Z,5.13
2023-01-19T16:05:43.751Z,5.60
2023-01-19T16:08:13.383Z,5.13
2023-01-19T16:10:42.188Z,5.18
2023-01-19T16:13:10.851Z,9.13
2023-01-19T16:15:42.330Z,7.68
2023-01-19T16:18:10.319Z,8.70
2023-01-19T16:20:38.309Z,5.20
2023-01-19T16:23:21.363Z,7.03
2023-01-19T16:25:58.910Z,6.40
2023-01-19T16:28:27.731Z,5.68
2023-01-19T16:30:55.770Z,5.63
2023-01-19T16:33:23.769Z,5.93
2023-01-19T16:35:51.722Z,5.18
2023-01-19T16:38:20.119Z,5.63
2023-01-19T16:40:48.440Z,6.97
2023-01-19T16:43:18.680Z,6.25
2023-01-19T16:46:01.149Z,7.07
2023-01-19T16:48:29.593Z,6.93
2023-01-19T16:51:02.887Z,7.45
2023-01-19T16:53:31.784Z,8.73
2023-01-19T16:55:59.779Z,7.68
2023-01-19T16:58:29.136Z,7.22
2023-01-19T17:00:57.140Z,7.15
2023-01-19T17:03:25.142Z,7.35
2023-01-19T17:05:53.111Z,6.15
2023-01-19T17:08:21.952Z,7.95
2023-01-19T17:10:49.893Z,8.02
2023-01-19T17:13:18.012Z,6.25
2023-01-19T17:15:47.365Z,6.03
2023-01-19T17:18:15.316Z,5.93
2023-01-19T17:20:43.244Z,5.68
2023-01-19T17:23:11.170Z,5.32
2023-01-19T17:25:39.150Z,4.90
2023-01-19T17:28:07.064Z,5.43
2023-01-19T17:30:35.104Z,5.07
2023-01-19T17:33:04.509Z,5.50
2023-01-19T17:35:35.191Z,5.22
2023-01-19T17:38:03.103Z,6.38
2023-01-19T17:40:31.485Z,6.00
2023-01-19T17:42:59.698Z,7.22
2023-01-19T17:45:27.729Z,7.50
2023-01-19T17:47:55.619Z,7.15
2023-01-19T17:50:24.977Z,7.20
2023-01-19T17:52:52.952Z,7.22
2023-01-19T17:55:21.020Z,7.25
2023-01-19T17:57:49.071Z,8.23
2023-01-19T18:00:18.083Z,6.82
2023-01-19T18:02:46.081Z,8.02
2023-01-19T18:05:14.815Z,10.60
2023-01-19T18:07:44.215Z,8.18
2023-01-19T18:10:13.892Z,7.63
2023-01-19T18:12:42.044Z,8.23
2023-01-19T18:15:10.886Z,8.65
2023-01-19T18:17:40.816Z,7.53
2023-01-19T18:20:10.319Z,7.75
2023-01-19T18:22:38.394Z,9.02
2023-01-19T18:25:08.458Z,10.52
2023-01-19T18:27:36.367Z,11.10
2023-01-19T18:30:04.482Z,11.38
2023-01-19T18:32:32.405Z,10.60
2023-01-19T18:35:00.976Z,10.50
2023-01-19T18:37:28.929Z,13.27
2023-01-19T18:39:59.781Z,12.00
2023-01-19T18:42:29.367Z,14.15
2023-01-19T18:44:57.383Z,14.73
2023-01-19T18:47:25.451Z,15.45
2023-01-19T18:49:53.416Z,15.57
2023-01-19T18:52:21.376Z,15.35
2023-01-19T18:54:49.575Z,14.73
2023-01-19T18:57:17.964Z,15.95
2023-01-19T18:59:48.883Z,18.02
2023-01-19T19:02:16.855Z,17.65
2023-01-19T19:04:44.867Z,16.05
2023-01-19T19:07:13.443Z,15.85
2023-01-19T19:09:42.742Z,13.48
2023-01-19T19:12:11.026Z,13.40
2023-01-19T19:14:39.417Z,12.18
2023-01-19T19:17:10.344Z,10.50
2023-01-19T19:19:40.823Z,11.13
2023-01-19T19:22:09.069Z,11.48
2023-01-19T19:24:38.241Z,11.75
2023-01-19T19:27:06.923Z,12.60
2023-01-19T19:29:35.240Z,10.60
2023-01-19T19:32:03.266Z,14.25
2023-01-19T19:34:33.383Z,11.05
2023-01-19T19:37:01.531Z,6.63
2023-01-19T19:39:29.750Z,5.53
2023-01-19T19:41:57.628Z,4.93
2023-01-19T19:44:25.578Z,3.17
2023-01-19T19:46:53.522Z,3.30
2023-01-19T19:49:21.555Z,3.45
2023-01-19T19:51:51.000Z,4.05
2023-01-19T19:54:18.906Z,3.88
2023-01-19T19:56:48.443Z,4.60
2023-01-19T19:59:16.356Z,3.90
2023-01-19T20:01:45.393Z,4.43
2023-01-19T20:04:14.814Z,4.28
2023-01-19T20:06:44.923Z,3.65
2023-01-19T20:09:15.231Z,3.15
2023-01-19T20:11:44.277Z,3.35
2023-01-19T20:14:14.382Z,3.95
2023-01-19T20:16:42.350Z,3.92
2023-01-19T20:19:10.605Z,3.67
2023-01-19T20:21:41.883Z,3.50
2023-01-19T20:24:13.892Z,5.30
2023-01-19T20:26:45.186Z,6.35
2023-01-19T20:29:13.125Z,5.10
2023-01-19T20:31:44.468Z,5.15
2023-01-19T20:34:14.881Z,4.25
2023-01-19T20:36:44.356Z,5.85
2023-01-19T20:39:12.810Z,5.15
2023-01-19T20:41:45.179Z,5.03
2023-01-19T20:44:16.726Z,4.70
2023-01-19T20:46:44.679Z,5.03
2023-01-19T20:49:12.991Z,4.75
2023-01-19T20:51:43.468Z,5.25
2023-01-19T20:54:12.079Z,5.60
2023-01-19T20:56:42.822Z,5.22
2023-01-19T20:59:12.414Z,4.78
2023-01-19T21:01:42.596Z,4.72
2023-01-19T21:04:13.771Z,4.93
2023-01-19T21:06:42.625Z,5.45
2023-01-19T21:09:14.248Z,4.38
2023-01-19T21:11:44.769Z,5.45
2023-01-19T21:14:17.686Z,6.03
2023-01-19T21:16:48.602Z,6.68
2023-01-19T21:19:18.327Z,5.93
2023-01-19T21:21:48.738Z,5.00
2023-01-19T21:24:16.709Z,5.80
2023-01-19T21:26:48.340Z,5.63
2023-01-19T21:29:16.374Z,5.13
2023-01-19T21:31:47.801Z,8.25
2023-01-19T21:34:17.929Z,6.13
2023-01-19T21:36:47.931Z,6.05
2023-01-19T21:39:17.374Z,4.85
2023-01-19T21:41:45.472Z,4.70
2023-01-19T21:44:14.442Z,4.55
2023-01-19T21:46:43.520Z,4.55
2023-01-19T21:49:18.418Z,3.90
2023-01-19T21:51:47.985Z,4.57
2023-01-19T21:54:16.070Z,4.25
2023-01-19T21:56:44.197Z,4.18
2023-01-19T21:59:14.777Z,4.20
2023-01-19T22:01:44.515Z,3.58
2023-01-19T22:04:12.815Z,4.10
2023-01-19T22:06:42.183Z,3.63
2023-01-19T22:09:10.128Z,3.95
2023-01-19T22:11:38.099Z,3.60
2023-01-19T22:14:06.370Z,3.38
2023-01-19T22:16:34.370Z,3.80
2023-01-19T22:19:02.740Z,3.67
2023-01-19T22:21:33.467Z,4.15
2023-01-19T22:24:04.807Z,3.70
2023-01-19T22:26:34.869Z,3.03
2023-01-19T22:31:40.893Z,3.65
2023-01-19T22:34:10.427Z,3.58
2023-01-19T22:36:39.459Z,3.55
2023-01-19T22:39:10.687Z,3.88
2023-01-19T22:41:40.708Z,4.05
2023-01-19T22:44:11.567Z,4.20
2023-01-19T22:46:39.876Z,4.47
2023-01-19T22:49:08.842Z,4.78
2023-01-19T22:51:37.413Z,4.88
2023-01-19T22:54:05.805Z,5.43
2023-01-19T22:56:37.113Z,6.22
2023-01-19T22:59:05.674Z,5.22
2023-01-19T23:01:36.128Z,4.72
2023-01-19T23:04:05.656Z,4.30
2023-01-19T23:06:35.150Z,4.43
2023-01-19T23:09:05.561Z,4.68
2023-01-19T23:11:37.472Z,3.72
2023-01-19T23:14:07.060Z,5.97
2023-01-19T23:16:35.146Z,7.18
2023-01-19T23:19:03.316Z,6.25
2023-01-19T23:21:33.267Z,5.10
2023-01-19T23:24:02.961Z,6.32
2023-01-19T23:26:38.053Z,4.07
2023-01-19T23:29:09.493Z,3.65
2023-01-19T23:31:38.811Z,3.22
2023-01-19T23:34:08.517Z,2.72
2023-01-19T23:36:38.400Z,2.45
2023-01-19T23:39:09.941Z,2.25
2023-01-19T23:41:37.960Z,2.20
2023-01-19T23:44:07.354Z,2.28
2023-01-19T23:46:35.459Z,2.28
2023-01-19T23:49:03.456Z,2.33
2023-01-19T23:51:33.193Z,3.90
2023-01-19T23:54:01.908Z,5.07
2023-01-19T23:56:32.945Z,4.05
2023-01-19T23:59:03.710Z,3.42
